Soldotna, AK

12:44 PM AKDT on September 20, 2014 (GMT -0800)
Soldotna | Change Station
CLOSE
Current Station
Airport
Location: Soldotna,
Elevation: 112 ft
Nearby Weather Stations

Elev 112 ft 60.48 °N, 151.03 °W | Updated 8 minutes ago

Overcast
Overcast
54 °F
Feels Like 54 °F
N
0
Wind Variable Wind from North

Today
High -- | Low -- °F
--% Chance of Precip.
Yesterday
High -- | Low -- °F
Precip. -- in
7:44 AM 8:09 PM
Waning Crescent, 10% visible
Pressure 29.57 in
Visibility 10.0 miles
Clouds Overcast 9500 ft
Dew Point 45 °F
Humidity 72%
Rainfall 0.00 in
Snow Depth 2 in , 0 in , 0 in
UV 1 out of 12
Pollen Not available.
Air Quality Not available.
Flu Activity Not available.
METAR PASX 202036Z AUTO 00000KT 10SM OVC095 12/07 A2957 RMK AO1

More Conditions Fewer Conditions

Pressure 29.57 in
Visibility 10.0 miles
Clouds Overcast 9500 ft
Dew Point 45 °F
Humidity 72%
Rainfall 0.00 in
Snow Depth 2 in , 0 in , 0 in
UV 1 out of 12
Pollen Not available.
Air Quality Not available.
Flu Activity Not available.
METAR PASX 202036Z AUTO 00000KT 10SM OVC095 12/07 A2957 RMK AO1

More Conditions Fewer Conditions

10-Day Weather Forecast

Almanac

Astronomy

Sep. 20, 2014 Rise Set
Actual Time 7:44 AM AKDT 8:09 PM AKDT
Civil Twilight 7:01 AM AKDT 8:51 PM AKDT
Nautical Twilight 6:10 AM AKDT 9:43 PM AKDT
Astronomical Twilight 5:13 AM AKDT 10:39 PM AKDT
Moon 3:52 AM AKDT 6:50 PM AKDT
Length of Visible Light 13h 50m
Length of Day
12h 25m
Tomorrow will be 5m 30s shorter.
Waning Crescent, 10% of the Moon is Illuminated
Today
Waning Crescent
Sep 24
New
Oct 1
First Quarter
Oct 8
Full
Oct 15
Last Quarter

Today's Extremes

State Highs State Lows

Community

WunderPhotos

Upload Photos

1,754,945 photos uploaded!

WunderBlogs® & News

Nearby

Snow Depth

Station Depth Elevation
Atigun Pass 2 in 4800 ft
Long Lake 0 in 820 ft
Granite Creek 0 in 1240 ft
Nuka Glacier 108 in 1250 ft
Port Graham 0 in 300 ft

Earthquake Activity

City Distance Mag. Time & Date
No recent earthquake activity has been reported nearby.
Minimum magnitude displayed is 2.5.

Coastal Water Temperatures

Place Temperature
No Stations Reporting

Nearby Weather Stations